sensor_id;sensor_type;location;lat;lon;timestamp;temperature;humidity
4058;DHT22;2044;48.692;9.020;2023-04-24T00:00:04;9.40;99.90
4058;DHT22;2044;48.692;9.020;2023-04-24T00:02:32;9.40;99.90
4058;DHT22;2044;48.692;9.020;2023-04-24T00:05:01;9.30;99.90
4058;DHT22;2044;48.692;9.020;2023-04-24T00:07:28;9.20;99.90
4058;DHT22;2044;48.692;9.020;2023-04-24T00:09:55;9.20;99.90
4058;DHT22;2044;48.692;9.020;2023-04-24T00:12:21;9.20;99.90
4058;DHT22;2044;48.692;9.020;2023-04-24T00:14:48;9.20;99.90
4058;DHT22;2044;48.692;9.020;2023-04-24T00:17:15;9.20;99.90
4058;DHT22;2044;48.692;9.020;2023-04-24T00:19:45;9.20;99.90
4058;DHT22;2044;48.692;9.020;2023-04-24T00:22:13;9.20;99.90
4058;DHT22;2044;48.692;9.020;2023-04-24T00:24:40;9.30;99.90
4058;DHT22;2044;48.692;9.020;2023-04-24T00:27:06;9.30;99.90
4058;DHT22;2044;48.692;9.020;2023-04-24T00:29:33;9.40;99.90
4058;DHT22;2044;48.692;9.020;2023-04-24T00:32:00;9.40;99.90
4058;DHT22;2044;48.692;9.020;2023-04-24T00:34:26;9.40;99.90
4058;DHT22;2044;48.692;9.020;2023-04-24T00:36:53;9.40;99.90
4058;DHT22;2044;48.692;9.020;2023-04-24T00:39:22;9.40;99.90
4058;DHT22;2044;48.692;9.020;2023-04-24T00:41:49;9.40;99.90
4058;DHT22;2044;48.692;9.020;2023-04-24T00:44:16;9.50;99.90
4058;DHT22;2044;48.692;9.020;2023-04-24T00:46:43;10.10;99.90
4058;DHT22;2044;48.692;9.020;2023-04-24T00:49:10;9.60;99.90
4058;DHT22;2044;48.692;9.020;2023-04-24T00:51:38;9.60;99.90
4058;DHT22;2044;48.692;9.020;2023-04-24T00:54:06;9.60;99.90
4058;DHT22;2044;48.692;9.020;2023-04-24T00:56:34;9.50;99.90
4058;DHT22;2044;48.692;9.020;2023-04-24T00:59:01;9.50;99.90
4058;DHT22;2044;48.692;9.020;2023-04-24T01:01:28;9.50;99.90
4058;DHT22;2044;48.692;9.020;2023-04-24T01:03:56;9.60;99.90
4058;DHT22;2044;48.692;9.020;2023-04-24T01:06:27;9.60;99.90
4058;DHT22;2044;48.692;9.020;2023-04-24T01:08:54;9.60;99.90
4058;DHT22;2044;48.692;9.020;2023-04-24T01:11:21;9.60;99.90
4058;DHT22;2044;48.692;9.020;2023-04-24T01:13:49;9.60;99.90
4058;DHT22;2044;48.692;9.020;2023-04-24T01:16:16;9.60;99.90
4058;DHT22;2044;48.692;9.020;2023-04-24T01:18:43;9.50;99.90
4058;DHT22;2044;48.692;9.020;2023-04-24T01:21:13;9.50;99.90
4058;DHT22;2044;48.692;9.020;2023-04-24T01:23:43;9.50;99.90
4058;DHT22;2044;48.692;9.020;2023-04-24T01:26:09;9.50;99.90
4058;DHT22;2044;48.692;9.020;2023-04-24T01:28:37;9.40;99.90
4058;DHT22;2044;48.692;9.020;2023-04-24T01:31:03;9.40;99.90
4058;DHT22;2044;48.692;9.020;2023-04-24T01:33:31;9.40;99.90
4058;DHT22;2044;48.692;9.020;2023-04-24T01:35:58;9.50;99.90
4058;DHT22;2044;48.692;9.020;2023-04-24T01:38:24;9.50;99.90
4058;DHT22;2044;48.692;9.020;2023-04-24T01:40:52;9.50;99.90
4058;DHT22;2044;48.692;9.020;2023-04-24T01:43:20;9.60;99.90
4058;DHT22;2044;48.692;9.020;2023-04-24T01:45:47;9.50;99.90
4058;DHT22;2044;48.692;9.020;2023-04-24T01:48:13;9.50;99.90
4058;DHT22;2044;48.692;9.020;2023-04-24T01:50:40;9.40;99.90
4058;DHT22;2044;48.692;9.020;2023-04-24T01:53:07;9.30;99.90
4058;DHT22;2044;48.692;9.020;2023-04-24T01:55:34;9.30;99.90
4058;DHT22;2044;48.692;9.020;2023-04-24T01:58:02;9.30;99.90
4058;DHT22;2044;48.692;9.020;2023-04-24T02:00:29;9.30;99.90
4058;DHT22;2044;48.692;9.020;2023-04-24T02:02:55;9.20;99.90
4058;DHT22;2044;48.692;9.020;2023-04-24T02:05:22;9.20;99.90
4058;DHT22;2044;48.692;9.020;2023-04-24T02:07:49;9.10;99.90
4058;DHT22;2044;48.692;9.020;2023-04-24T02:10:16;9.00;99.90
4058;DHT22;2044;48.692;9.020;2023-04-24T02:12:42;9.00;99.90
4058;DHT22;2044;48.692;9.020;2023-04-24T02:15:11;8.90;99.90
4058;DHT22;2044;48.692;9.020;2023-04-24T02:17:38;8.80;99.90
4058;DHT22;2044;48.692;9.020;2023-04-24T02:20:06;8.80;99.90
4058;DHT22;2044;48.692;9.020;2023-04-24T02:22:33;8.80;99.90
4058;DHT22;2044;48.692;9.020;2023-04-24T02:25:00;8.90;99.90
4058;DHT22;2044;48.692;9.020;2023-04-24T02:27:27;8.90;99.90
4058;DHT22;2044;48.692;9.020;2023-04-24T02:29:53;8.90;99.90
4058;DHT22;2044;48.692;9.020;2023-04-24T02:32:22;8.90;99.90
4058;DHT22;2044;48.692;9.020;2023-04-24T02:34:48;8.90;99.90
4058;DHT22;2044;48.692;9.020;2023-04-24T02:37:15;8.90;99.90
4058;DHT22;2044;48.692;9.020;2023-04-24T02:39:42;8.90;99.90
4058;DHT22;2044;48.692;9.020;2023-04-24T02:42:08;8.90;99.90
4058;DHT22;2044;48.692;9.020;2023-04-24T02:44:35;8.90;99.90
4058;DHT22;2044;48.692;9.020;2023-04-24T02:47:02;8.90;99.90
4058;DHT22;2044;48.692;9.020;2023-04-24T02:49:30;8.80;99.90
4058;DHT22;2044;48.692;9.020;2023-04-24T02:51:57;8.90;99.90
4058;DHT22;2044;48.692;9.020;2023-04-24T02:54:23;8.90;99.90
4058;DHT22;2044;48.692;9.020;2023-04-24T02:56:50;8.90;99.90
4058;DHT22;2044;48.692;9.020;2023-04-24T02:59:17;8.90;99.90
4058;DHT22;2044;48.692;9.020;2023-04-24T03:01:43;8.90;99.90
4058;DHT22;2044;48.692;9.020;2023-04-24T03:04:10;8.80;99.90
4058;DHT22;2044;48.692;9.020;2023-04-24T03:06:38;8.70;99.90
4058;DHT22;2044;48.692;9.020;2023-04-24T03:09:05;8.60;99.90
4058;DHT22;2044;48.692;9.020;2023-04-24T03:11:31;8.60;99.90
4058;DHT22;2044;48.692;9.020;2023-04-24T03:16:25;8.50;99.90
4058;DHT22;2044;48.692;9.020;2023-04-24T03:18:52;8.50;99.90
4058;DHT22;2044;48.692;9.020;2023-04-24T03:21:19;8.50;99.90
4058;DHT22;2044;48.692;9.020;2023-04-24T03:23:47;8.50;99.90
4058;DHT22;2044;48.692;9.020;2023-04-24T03:26:13;8.60;99.90
4058;DHT22;2044;48.692;9.020;2023-04-24T03:28:40;8.60;99.90
4058;DHT22;2044;48.692;9.020;2023-04-24T03:31:07;8.60;99.90
4058;DHT22;2044;48.692;9.020;2023-04-24T03:33:33;8.60;99.90
4058;DHT22;2044;48.692;9.020;2023-04-24T03:36:01;8.50;99.90
4058;DHT22;2044;48.692;9.020;2023-04-24T03:40:56;8.50;99.90
4058;DHT22;2044;48.692;9.020;2023-04-24T03:43:23;8.40;99.90
4058;DHT22;2044;48.692;9.020;2023-04-24T03:45:49;8.40;99.90
4058;DHT22;2044;48.692;9.020;2023-04-24T03:48:16;8.20;99.90
4058;DHT22;2044;48.692;9.020;2023-04-24T03:50:43;8.30;99.90
4058;DHT22;2044;48.692;9.020;2023-04-24T03:53:09;8.20;99.90
4058;DHT22;2044;48.692;9.020;2023-04-24T03:55:36;8.20;99.90
4058;DHT22;2044;48.692;9.020;2023-04-24T03:58:04;8.30;99.90
4058;DHT22;2044;48.692;9.020;2023-04-24T04:00:31;8.30;99.90
4058;DHT22;2044;48.692;9.020;2023-04-24T04:02:58;8.30;99.90
4058;DHT22;2044;48.692;9.020;2023-04-24T04:05:25;8.40;99.90
4058;DHT22;2044;48.692;9.020;2023-04-24T04:10:19;8.40;99.90
4058;DHT22;2044;48.692;9.020;2023-04-24T04:12:45;8.50;99.90
4058;DHT22;2044;48.692;9.020;2023-04-24T04:15:13;8.50;99.90
4058;DHT22;2044;48.692;9.020;2023-04-24T04:17:40;8.60;99.90
4058;DHT22;2044;48.692;9.020;2023-04-24T04:20:07;8.60;99.90
4058;DHT22;2044;48.692;9.020;2023-04-24T04:22:35;8.60;99.90
4058;DHT22;2044;48.692;9.020;2023-04-24T04:25:02;8.60;99.90
4058;DHT22;2044;48.692;9.020;2023-04-24T04:27:29;8.60;99.90
4058;DHT22;2044;48.692;9.020;2023-04-24T04:29:57;8.30;99.90
4058;DHT22;2044;48.692;9.020;2023-04-24T04:32:26;7.90;99.90
4058;DHT22;2044;48.692;9.020;2023-04-24T04:34:52;7.60;99.90
4058;DHT22;2044;48.692;9.020;2023-04-24T04:37:19;7.40;99.90
4058;DHT22;2044;48.692;9.020;2023-04-24T04:39:46;7.30;99.90
4058;DHT22;2044;48.692;9.020;2023-04-24T04:42:13;7.20;99.90
4058;DHT22;2044;48.692;9.020;2023-04-24T04:44:40;7.10;99.90
4058;DHT22;2044;48.692;9.020;2023-04-24T04:47:08;7.10;99.90
4058;DHT22;2044;48.692;9.020;2023-04-24T04:49:37;7.10;99.90
4058;DHT22;2044;48.692;9.020;2023-04-24T04:52:04;7.00;99.90
4058;DHT22;2044;48.692;9.020;2023-04-24T04:54:31;7.00;99.90
4058;DHT22;2044;48.692;9.020;2023-04-24T04:56:58;7.00;99.90
4058;DHT22;2044;48.692;9.020;2023-04-24T04:59:25;7.00;99.90
4058;DHT22;2044;48.692;9.020;2023-04-24T05:01:52;7.00;99.90
4058;DHT22;2044;48.692;9.020;2023-04-24T05:04:19;7.00;99.90
4058;DHT22;2044;48.692;9.020;2023-04-24T05:06:47;6.90;99.90
4058;DHT22;2044;48.692;9.020;2023-04-24T05:09:14;7.00;99.90
4058;DHT22;2044;48.692;9.020;2023-04-24T05:11:40;7.00;99.90
4058;DHT22;2044;48.692;9.020;2023-04-24T05:14:07;7.00;99.90
4058;DHT22;2044;48.692;9.020;2023-04-24T05:16:34;7.10;99.90
4058;DHT22;2044;48.692;9.020;2023-04-24T05:19:02;7.00;99.90
4058;DHT22;2044;48.692;9.020;2023-04-24T05:21:29;7.10;99.90
4058;DHT22;2044;48.692;9.020;2023-04-24T05:23:57;7.10;99.90
4058;DHT22;2044;48.692;9.020;2023-04-24T05:26:24;7.10;99.90
4058;DHT22;2044;48.692;9.020;2023-04-24T05:28:51;7.10;99.90
4058;DHT22;2044;48.692;9.020;2023-04-24T05:31:17;7.20;99.90
4058;DHT22;2044;48.692;9.020;2023-04-24T05:33:44;7.20;99.90
4058;DHT22;2044;48.692;9.020;2023-04-24T05:36:11;7.20;99.90
4058;DHT22;2044;48.692;9.020;2023-04-24T05:38:38;7.20;99.90
4058;DHT22;2044;48.692;9.020;2023-04-24T05:41:06;7.40;99.90
4058;DHT22;2044;48.692;9.020;2023-04-24T05:43:32;7.40;99.90
4058;DHT22;2044;48.692;9.020;2023-04-24T05:45:59;7.50;99.90
4058;DHT22;2044;48.692;9.020;2023-04-24T05:48:26;7.50;99.90
4058;DHT22;2044;48.692;9.020;2023-04-24T05:50:53;7.50;99.90
4058;DHT22;2044;48.692;9.020;2023-04-24T05:53:20;7.40;99.90
4058;DHT22;2044;48.692;9.020;2023-04-24T05:55:47;7.30;99.90
4058;DHT22;2044;48.692;9.020;2023-04-24T05:58:15;7.30;99.90
4058;DHT22;2044;48.692;9.020;2023-04-24T06:03:11;7.20;99.90
4058;DHT22;2044;48.692;9.020;2023-04-24T06:05:38;7.30;99.90
4058;DHT22;2044;48.692;9.020;2023-04-24T06:08:05;7.40;99.90
4058;DHT22;2044;48.692;9.020;2023-04-24T06:10:32;7.40;99.90
4058;DHT22;2044;48.692;9.020;2023-04-24T06:12:58;7.80;99.90
4058;DHT22;2044;48.692;9.020;2023-04-24T06:17:56;11.10;99.90
4058;DHT22;2044;48.692;9.020;2023-04-24T06:20:23;11.80;99.90
4058;DHT22;2044;48.692;9.020;2023-04-24T06:22:50;12.70;99.90
4058;DHT22;2044;48.692;9.020;2023-04-24T06:25:17;13.00;99.90
4058;DHT22;2044;48.692;9.020;2023-04-24T06:27:44;12.70;99.90
4058;DHT22;2044;48.692;9.020;2023-04-24T06:30:11;12.60;99.90
4058;DHT22;2044;48.692;9.020;2023-04-24T06:32:39;12.50;99.90
4058;DHT22;2044;48.692;9.020;2023-04-24T06:35:07;11.50;99.90
4058;DHT22;2044;48.692;9.020;2023-04-24T06:37:35;10.60;99.90
4058;DHT22;2044;48.692;9.020;2023-04-24T06:40:02;10.60;99.90
4058;DHT22;2044;48.692;9.020;2023-04-24T06:42:28;10.40;99.90
4058;DHT22;2044;48.692;9.020;2023-04-24T06:44:55;12.20;99.90
4058;DHT22;2044;48.692;9.020;2023-04-24T06:47:22;14.00;99.90
4058;DHT22;2044;48.692;9.020;2023-04-24T06:49:50;14.30;99.90
4058;DHT22;2044;48.692;9.020;2023-04-24T06:52:17;13.50;99.90
4058;DHT22;2044;48.692;9.020;2023-04-24T06:54:44;12.80;99.90
4058;DHT22;2044;48.692;9.020;2023-04-24T06:57:11;12.50;99.90
4058;DHT22;2044;48.692;9.020;2023-04-24T06:59:38;12.50;99.90
4058;DHT22;2044;48.692;9.020;2023-04-24T07:02:05;12.40;99.90
4058;DHT22;2044;48.692;9.020;2023-04-24T07:04:31;12.10;99.90
4058;DHT22;2044;48.692;9.020;2023-04-24T07:06:59;12.00;99.90
4058;DHT22;2044;48.692;9.020;2023-04-24T07:09:26;11.70;99.90
4058;DHT22;2044;48.692;9.020;2023-04-24T07:11:53;11.20;99.90
4058;DHT22;2044;48.692;9.020;2023-04-24T07:14:22;10.30;99.90
4058;DHT22;2044;48.692;9.020;2023-04-24T07:16:48;9.30;99.90
4058;DHT22;2044;48.692;9.020;2023-04-24T07:19:15;8.80;99.90
4058;DHT22;2044;48.692;9.020;2023-04-24T07:21:42;8.90;99.90
4058;DHT22;2044;48.692;9.020;2023-04-24T07:24:10;9.10;99.90
4058;DHT22;2044;48.692;9.020;2023-04-24T07:26:38;9.50;99.90
4058;DHT22;2044;48.692;9.020;2023-04-24T07:29:05;10.30;99.90
4058;DHT22;2044;48.692;9.020;2023-04-24T07:31:32;11.80;99.90
4058;DHT22;2044;48.692;9.020;2023-04-24T07:33:59;13.40;99.90
4058;DHT22;2044;48.692;9.020;2023-04-24T07:36:25;13.80;99.90
4058;DHT22;2044;48.692;9.020;2023-04-24T07:38:54;16.80;1.00
4058;DHT22;2044;48.692;9.020;2023-04-24T07:41:22;16.80;99.90
4058;DHT22;2044;48.692;9.020;2023-04-24T07:43:49;16.00;1.00
4058;DHT22;2044;48.692;9.020;2023-04-24T07:46:16;14.50;99.90
4058;DHT22;2044;48.692;9.020;2023-04-24T07:48:43;14.40;99.90
4058;DHT22;2044;48.692;9.020;2023-04-24T07:51:09;14.10;99.90
4058;DHT22;2044;48.692;9.020;2023-04-24T07:53:38;13.80;99.90
4058;DHT22;2044;48.692;9.020;2023-04-24T07:56:05;12.60;99.90
4058;DHT22;2044;48.692;9.020;2023-04-24T07:58:33;13.50;99.90
4058;DHT22;2044;48.692;9.020;2023-04-24T08:01:00;14.00;99.90
4058;DHT22;2044;48.692;9.020;2023-04-24T08:03:27;13.10;99.90
4058;DHT22;2044;48.692;9.020;2023-04-24T08:05:53;12.90;99.90
4058;DHT22;2044;48.692;9.020;2023-04-24T08:08:21;12.10;99.90
4058;DHT22;2044;48.692;9.020;2023-04-24T08:10:49;12.10;99.90
4058;DHT22;2044;48.692;9.020;2023-04-24T08:13:16;11.70;99.90
4058;DHT22;2044;48.692;9.020;2023-04-24T08:15:44;11.70;99.90
4058;DHT22;2044;48.692;9.020;2023-04-24T08:18:10;11.80;99.90
4058;DHT22;2044;48.692;9.020;2023-04-24T08:20:39;12.00;99.90
4058;DHT22;2044;48.692;9.020;2023-04-24T08:23:05;12.40;99.90
4058;DHT22;2044;48.692;9.020;2023-04-24T08:25:32;12.30;99.90
4058;DHT22;2044;48.692;9.020;2023-04-24T08:28:01;13.50;99.90
4058;DHT22;2044;48.692;9.020;2023-04-24T08:30:28;13.50;99.90
4058;DHT22;2044;48.692;9.020;2023-04-24T08:32:56;14.40;99.90
4058;DHT22;2044;48.692;9.020;2023-04-24T08:35:23;15.30;1.00
4058;DHT22;2044;48.692;9.020;2023-04-24T08:37:51;13.50;1.00
4058;DHT22;2044;48.692;9.020;2023-04-24T08:40:22;13.50;99.90
4058;DHT22;2044;48.692;9.020;2023-04-24T08:42:54;13.40;99.90
4058;DHT22;2044;48.692;9.020;2023-04-24T08:45:22;12.60;99.90
4058;DHT22;2044;48.692;9.020;2023-04-24T08:47:49;11.80;99.90
4058;DHT22;2044;48.692;9.020;2023-04-24T08:50:18;11.60;99.90
4058;DHT22;2044;48.692;9.020;2023-04-24T08:52:44;11.10;99.90
4058;DHT22;2044;48.692;9.020;2023-04-24T08:55:11;11.10;99.90
4058;DHT22;2044;48.692;9.020;2023-04-24T08:57:38;11.70;99.90
4058;DHT22;2044;48.692;9.020;2023-04-24T09:00:07;11.70;99.90
4058;DHT22;2044;48.692;9.020;2023-04-24T09:02:34;12.60;99.90
4058;DHT22;2044;48.692;9.020;2023-04-24T09:05:01;12.50;99.90
4058;DHT22;2044;48.692;9.020;2023-04-24T09:07:34;12.00;99.90
4058;DHT22;2044;48.692;9.020;2023-04-24T09:10:02;11.60;99.90
4058;DHT22;2044;48.692;9.020;2023-04-24T09:12:29;11.60;99.90
4058;DHT22;2044;48.692;9.020;2023-04-24T09:14:56;11.80;99.90
4058;DHT22;2044;48.692;9.020;2023-04-24T09:17:24;11.00;1.00
4058;DHT22;2044;48.692;9.020;2023-04-24T09:19:53;11.90;99.90
4058;DHT22;2044;48.692;9.020;2023-04-24T09:22:21;12.30;99.90
4058;DHT22;2044;48.692;9.020;2023-04-24T09:24:59;13.30;99.90
4058;DHT22;2044;48.692;9.020;2023-04-24T09:27:28;12.90;99.90
4058;DHT22;2044;48.692;9.020;2023-04-24T09:29:55;12.50;99.90
4058;DHT22;2044;48.692;9.020;2023-04-24T09:32:23;13.00;99.90
4058;DHT22;2044;48.692;9.020;2023-04-24T09:35:06;13.30;99.90
4058;DHT22;2044;48.692;9.020;2023-04-24T09:37:36;13.90;99.90
4058;DHT22;2044;48.692;9.020;2023-04-24T09:40:12;13.90;99.90
4058;DHT22;2044;48.692;9.020;2023-04-24T09:42:39;14.10;99.90
4058;DHT22;2044;48.692;9.020;2023-04-24T09:45:09;13.50;99.90
4058;DHT22;2044;48.692;9.020;2023-04-24T09:47:36;13.80;99.90
4058;DHT22;2044;48.692;9.020;2023-04-24T09:50:09;13.70;99.90
4058;DHT22;2044;48.692;9.020;2023-04-24T09:52:40;13.80;99.90
4058;DHT22;2044;48.692;9.020;2023-04-24T09:55:16;13.10;99.90
4058;DHT22;2044;48.692;9.020;2023-04-24T09:57:50;12.40;99.90
4058;DHT22;2044;48.692;9.020;2023-04-24T10:00:24;12.40;99.90
4058;DHT22;2044;48.692;9.020;2023-04-24T10:02:56;13.10;99.90
4058;DHT22;2044;48.692;9.020;2023-04-24T10:05:24;13.40;99.90
4058;DHT22;2044;48.692;9.020;2023-04-24T10:07:51;13.50;99.90
4058;DHT22;2044;48.692;9.020;2023-04-24T10:10:19;13.50;99.90
4058;DHT22;2044;48.692;9.020;2023-04-24T10:12:47;14.40;99.90
4058;DHT22;2044;48.692;9.020;2023-04-24T10:15:15;14.30;99.90
4058;DHT22;2044;48.692;9.020;2023-04-24T10:17:47;14.10;99.90
4058;DHT22;2044;48.692;9.020;2023-04-24T10:20:18;14.10;99.90
4058;DHT22;2044;48.692;9.020;2023-04-24T10:22:48;13.70;99.90
4058;DHT22;2044;48.692;9.020;2023-04-24T10:25:19;13.40;99.90
4058;DHT22;2044;48.692;9.020;2023-04-24T10:27:47;13.70;99.90
4058;DHT22;2044;48.692;9.020;2023-04-24T10:30:15;13.70;99.90
4058;DHT22;2044;48.692;9.020;2023-04-24T10:32:42;13.70;99.90
4058;DHT22;2044;48.692;9.020;2023-04-24T10:35:09;13.20;99.90
4058;DHT22;2044;48.692;9.020;2023-04-24T10:37:38;12.90;99.90
4058;DHT22;2044;48.692;9.020;2023-04-24T10:40:07;12.90;99.90
4058;DHT22;2044;48.692;9.020;2023-04-24T10:42:40;12.90;99.90
4058;DHT22;2044;48.692;9.020;2023-04-24T10:45:07;13.60;99.90
4058;DHT22;2044;48.692;9.020;2023-04-24T10:47:42;13.70;99.90
4058;DHT22;2044;48.692;9.020;2023-04-24T10:50:10;13.70;99.90
4058;DHT22;2044;48.692;9.020;2023-04-24T10:52:46;14.40;99.90
4058;DHT22;2044;48.692;9.020;2023-04-24T10:58:01;12.60;99.90
4058;DHT22;2044;48.692;9.020;2023-04-24T11:02:55;12.00;99.90
4058;DHT22;2044;48.692;9.020;2023-04-24T11:05:24;11.70;1.00
4058;DHT22;2044;48.692;9.020;2023-04-24T11:08:13;11.90;99.90
4058;DHT22;2044;48.692;9.020;2023-04-24T11:10:44;11.70;99.90
4058;DHT22;2044;48.692;9.020;2023-04-24T11:13:14;12.40;99.90
4058;DHT22;2044;48.692;9.020;2023-04-24T11:15:42;12.40;99.90
4058;DHT22;2044;48.692;9.020;2023-04-24T11:18:13;12.20;99.90
4058;DHT22;2044;48.692;9.020;2023-04-24T11:20:42;11.90;99.90
4058;DHT22;2044;48.692;9.020;2023-04-24T11:23:08;12.10;99.90
4058;DHT22;2044;48.692;9.020;2023-04-24T11:25:38;12.40;99.90
4058;DHT22;2044;48.692;9.020;2023-04-24T11:28:06;12.20;99.90
4058;DHT22;2044;48.692;9.020;2023-04-24T11:30:34;12.20;99.90
4058;DHT22;2044;48.692;9.020;2023-04-24T11:33:05;11.60;99.90
4058;DHT22;2044;48.692;9.020;2023-04-24T11:35:35;11.10;99.90
4058;DHT22;2044;48.692;9.020;2023-04-24T11:38:06;10.70;1.00
4058;DHT22;2044;48.692;9.020;2023-04-24T11:40:34;10.60;99.90
4058;DHT22;2044;48.692;9.020;2023-04-24T11:43:00;11.00;99.90
4058;DHT22;2044;48.692;9.020;2023-04-24T11:45:29;11.20;99.90
4058;DHT22;2044;48.692;9.020;2023-04-24T11:47:57;11.70;99.90
4058;DHT22;2044;48.692;9.020;2023-04-24T11:50:25;11.80;99.90
4058;DHT22;2044;48.692;9.020;2023-04-24T11:52:53;12.50;99.90
4058;DHT22;2044;48.692;9.020;2023-04-24T11:55:26;11.70;99.90
4058;DHT22;2044;48.692;9.020;2023-04-24T11:57:54;11.50;99.90
4058;DHT22;2044;48.692;9.020;2023-04-24T12:00:24;11.30;99.90
4058;DHT22;2044;48.692;9.020;2023-04-24T12:02:51;11.50;99.90
4058;DHT22;2044;48.692;9.020;2023-04-24T12:05:24;11.40;99.90
4058;DHT22;2044;48.692;9.020;2023-04-24T12:10:20;11.00;99.90
4058;DHT22;2044;48.692;9.020;2023-04-24T12:12:47;10.80;99.90
4058;DHT22;2044;48.692;9.020;2023-04-24T12:15:16;11.10;99.90
4058;DHT22;2044;48.692;9.020;2023-04-24T12:17:44;11.00;99.90
4058;DHT22;2044;48.692;9.020;2023-04-24T12:20:12;11.00;99.90
4058;DHT22;2044;48.692;9.020;2023-04-24T12:22:48;11.20;99.90
4058;DHT22;2044;48.692;9.020;2023-04-24T12:25:17;12.10;99.90
4058;DHT22;2044;48.692;9.020;2023-04-24T12:27:44;12.20;99.90
4058;DHT22;2044;48.692;9.020;2023-04-24T12:30:13;12.00;99.90
4058;DHT22;2044;48.692;9.020;2023-04-24T12:32:43;11.00;99.90
4058;DHT22;2044;48.692;9.020;2023-04-24T12:35:11;10.70;99.90
4058;DHT22;2044;48.692;9.020;2023-04-24T12:40:10;10.80;99.90
4058;DHT22;2044;48.692;9.020;2023-04-24T12:42:42;10.70;99.90
4058;DHT22;2044;48.692;9.020;2023-04-24T12:45:09;10.20;99.90
4058;DHT22;2044;48.692;9.020;2023-04-24T12:47:38;10.40;99.90
4058;DHT22;2044;48.692;9.020;2023-04-24T12:50:06;10.40;99.90
4058;DHT22;2044;48.692;9.020;2023-04-24T12:52:32;10.20;99.90
4058;DHT22;2044;48.692;9.020;2023-04-24T12:55:00;10.90;99.90
4058;DHT22;2044;48.692;9.020;2023-04-24T12:57:29;10.10;99.90
4058;DHT22;2044;48.692;9.020;2023-04-24T12:59:57;10.10;99.90
4058;DHT22;2044;48.692;9.020;2023-04-24T13:04:51;9.90;99.90
4058;DHT22;2044;48.692;9.020;2023-04-24T13:07:19;9.90;99.90
4058;DHT22;2044;48.692;9.020;2023-04-24T13:09:47;10.10;99.90
4058;DHT22;2044;48.692;9.020;2023-04-24T13:12:14;10.50;99.90
4058;DHT22;2044;48.692;9.020;2023-04-24T13:14:43;10.80;99.90
4058;DHT22;2044;48.692;9.020;2023-04-24T13:17:09;11.30;99.90
4058;DHT22;2044;48.692;9.020;2023-04-24T13:19:39;11.50;99.90
4058;DHT22;2044;48.692;9.020;2023-04-24T13:22:06;11.70;99.90
4058;DHT22;2044;48.692;9.020;2023-04-24T13:24:33;11.40;99.90
4058;DHT22;2044;48.692;9.020;2023-04-24T13:27:00;11.00;99.90
4058;DHT22;2044;48.692;9.020;2023-04-24T13:29:27;10.20;99.90
4058;DHT22;2044;48.692;9.020;2023-04-24T13:31:55;9.90;99.90
4058;DHT22;2044;48.692;9.020;2023-04-24T13:34:22;9.80;99.90
4058;DHT22;2044;48.692;9.020;2023-04-24T13:36:49;9.50;99.90
4058;DHT22;2044;48.692;9.020;2023-04-24T13:39:17;9.40;99.90
4058;DHT22;2044;48.692;9.020;2023-04-24T13:41:43;9.50;99.90
4058;DHT22;2044;48.692;9.020;2023-04-24T13:44:10;9.70;99.90
4058;DHT22;2044;48.692;9.020;2023-04-24T13:46:37;9.60;99.90
4058;DHT22;2044;48.692;9.020;2023-04-24T13:49:05;10.30;99.90
4058;DHT22;2044;48.692;9.020;2023-04-24T13:51:32;10.70;99.90
4058;DHT22;2044;48.692;9.020;2023-04-24T13:53:59;11.10;99.90
4058;DHT22;2044;48.692;9.020;2023-04-24T13:56:26;11.00;99.90
4058;DHT22;2044;48.692;9.020;2023-04-24T13:58:53;11.00;99.90
4058;DHT22;2044;48.692;9.020;2023-04-24T14:01:20;11.20;99.90
4058;DHT22;2044;48.692;9.020;2023-04-24T14:03:49;10.80;99.90
4058;DHT22;2044;48.692;9.020;2023-04-24T14:06:18;10.80;99.90
4058;DHT22;2044;48.692;9.020;2023-04-24T14:08:45;10.60;99.90
4058;DHT22;2044;48.692;9.020;2023-04-24T14:11:11;10.60;99.90
4058;DHT22;2044;48.692;9.020;2023-04-24T14:13:39;10.40;99.90
4058;DHT22;2044;48.692;9.020;2023-04-24T14:16:07;10.00;99.90
4058;DHT22;2044;48.692;9.020;2023-04-24T14:18:34;9.30;99.90
4058;DHT22;2044;48.692;9.020;2023-04-24T14:21:01;9.10;99.90
4058;DHT22;2044;48.692;9.020;2023-04-24T14:23:29;8.90;99.90
4058;DHT22;2044;48.692;9.020;2023-04-24T14:25:56;9.00;99.90
4058;DHT22;2044;48.692;9.020;2023-04-24T14:28:23;9.80;99.90
4058;DHT22;2044;48.692;9.020;2023-04-24T14:30:50;9.90;99.90
4058;DHT22;2044;48.692;9.020;2023-04-24T14:33:17;10.10;99.90
4058;DHT22;2044;48.692;9.020;2023-04-24T14:35:44;10.00;99.90
4058;DHT22;2044;48.692;9.020;2023-04-24T14:38:11;10.00;99.90
4058;DHT22;2044;48.692;9.020;2023-04-24T14:40:40;9.90;99.90
4058;DHT22;2044;48.692;9.020;2023-04-24T14:43:06;10.00;99.90
4058;DHT22;2044;48.692;9.020;2023-04-24T14:45:33;10.10;99.90
4058;DHT22;2044;48.692;9.020;2023-04-24T14:48:00;10.50;99.90
4058;DHT22;2044;48.692;9.020;2023-04-24T14:50:27;10.70;99.90
4058;DHT22;2044;48.692;9.020;2023-04-24T14:52:54;11.10;99.90
4058;DHT22;2044;48.692;9.020;2023-04-24T14:55:22;11.00;99.90
4058;DHT22;2044;48.692;9.020;2023-04-24T14:57:50;10.40;99.90
4058;DHT22;2044;48.692;9.020;2023-04-24T15:00:18;10.30;99.90
4058;DHT22;2044;48.692;9.020;2023-04-24T15:02:45;10.30;99.90
4058;DHT22;2044;48.692;9.020;2023-04-24T15:05:12;10.00;99.90
4058;DHT22;2044;48.692;9.020;2023-04-24T15:07:39;9.90;99.90
4058;DHT22;2044;48.692;9.020;2023-04-24T15:10:07;9.90;99.90
4058;DHT22;2044;48.692;9.020;2023-04-24T15:12:34;9.90;99.90
4058;DHT22;2044;48.692;9.020;2023-04-24T15:15:02;9.70;99.90
4058;DHT22;2044;48.692;9.020;2023-04-24T15:17:29;9.70;99.90
4058;DHT22;2044;48.692;9.020;2023-04-24T15:19:56;10.00;99.90
4058;DHT22;2044;48.692;9.020;2023-04-24T15:22:23;9.90;99.90
4058;DHT22;2044;48.692;9.020;2023-04-24T15:24:49;9.80;99.90
4058;DHT22;2044;48.692;9.020;2023-04-24T15:27:16;9.70;99.90
4058;DHT22;2044;48.692;9.020;2023-04-24T15:29:43;9.70;99.90
4058;DHT22;2044;48.692;9.020;2023-04-24T15:32:11;9.60;99.90
4058;DHT22;2044;48.692;9.020;2023-04-24T15:34:37;9.60;99.90
4058;DHT22;2044;48.692;9.020;2023-04-24T15:37:04;9.70;99.90
4058;DHT22;2044;48.692;9.020;2023-04-24T15:39:31;9.90;99.90
4058;DHT22;2044;48.692;9.020;2023-04-24T15:41:58;10.10;99.90
4058;DHT22;2044;48.692;9.020;2023-04-24T15:44:25;10.30;99.90
4058;DHT22;2044;48.692;9.020;2023-04-24T15:46:52;10.50;99.90
4058;DHT22;2044;48.692;9.020;2023-04-24T15:49:20;10.60;99.90
4058;DHT22;2044;48.692;9.020;2023-04-24T15:51:47;10.80;99.90
4058;DHT22;2044;48.692;9.020;2023-04-24T15:54:14;11.00;99.90
4058;DHT22;2044;48.692;9.020;2023-04-24T15:56:41;11.20;99.90
4058;DHT22;2044;48.692;9.020;2023-04-24T16:01:36;13.00;99.90
4058;DHT22;2044;48.692;9.020;2023-04-24T16:04:02;13.40;99.90
4058;DHT22;2044;48.692;9.020;2023-04-24T16:06:31;13.10;99.90
4058;DHT22;2044;48.692;9.020;2023-04-24T16:08:57;12.40;99.90
4058;DHT22;2044;48.692;9.020;2023-04-24T16:11:24;12.20;99.90
4058;DHT22;2044;48.692;9.020;2023-04-24T16:13:51;12.20;99.90
4058;DHT22;2044;48.692;9.020;2023-04-24T16:16:17;11.90;99.90
4058;DHT22;2044;48.692;9.020;2023-04-24T16:18:44;11.60;99.90
4058;DHT22;2044;48.692;9.020;2023-04-24T16:21:12;11.60;99.90
4058;DHT22;2044;48.692;9.020;2023-04-24T16:23:40;11.30;99.90
4058;DHT22;2044;48.692;9.020;2023-04-24T16:26:07;11.10;99.90
4058;DHT22;2044;48.692;9.020;2023-04-24T16:28:34;10.90;99.90
4058;DHT22;2044;48.692;9.020;2023-04-24T16:31:00;10.90;99.90
4058;DHT22;2044;48.692;9.020;2023-04-24T16:33:27;11.00;99.90
4058;DHT22;2044;48.692;9.020;2023-04-24T16:35:54;10.80;99.90
4058;DHT22;2044;48.692;9.020;2023-04-24T16:38:21;10.70;99.90